createdAt,value
2017-08-24T00:00:13.000Z,0
2017-08-24T00:01:22.964Z,0
2017-08-24T00:02:32.928Z,0
2017-08-24T00:03:42.881Z,0
2017-08-24T00:04:53.152Z,0
2017-08-24T00:06:03.426Z,0
2017-08-24T00:07:13.695Z,0
2017-08-24T00:08:23.651Z,0
2017-08-24T00:09:33.919Z,0
2017-08-24T00:10:44.191Z,0
2017-08-24T00:11:54.194Z,0
2017-08-24T00:13:04.149Z,0
2017-08-24T00:14:14.425Z,0
2017-08-24T00:15:24.695Z,0
2017-08-24T00:16:34.652Z,0
2017-08-24T00:17:44.921Z,0
2017-08-24T00:18:54.569Z,0
2017-08-24T00:20:04.527Z,0
2017-08-24T00:21:14.483Z,0
2017-08-24T00:22:24.445Z,0
2017-08-24T00:23:34.406Z,0
2017-08-24T00:24:44.674Z,0
2017-08-24T00:25:54.630Z,0
2017-08-24T00:27:04.904Z,0
2017-08-24T00:28:14.860Z,0
2017-08-24T00:29:24.812Z,0
2017-08-24T00:30:34.766Z,0
2017-08-24T00:31:45.048Z,0
2017-08-24T00:32:55.318Z,0
2017-08-24T00:34:05.590Z,0
2017-08-24T00:35:15.860Z,0
2017-08-24T00:36:25.822Z,0
2017-08-24T00:37:36.096Z,0
2017-08-24T00:38:46.050Z,0
2017-08-24T00:39:56.007Z,0
2017-08-24T00:41:06.277Z,0
2017-08-24T00:42:15.925Z,0
2017-08-24T00:43:26.197Z,0
2017-08-24T00:44:36.157Z,0
2017-08-24T00:45:46.425Z,0
2017-08-24T00:46:56.383Z,0
2017-08-24T00:48:06.336Z,0
2017-08-24T00:49:16.607Z,0
2017-08-24T00:50:26.878Z,0
2017-08-24T00:51:36.516Z,0
2017-08-24T00:52:46.497Z,0
2017-08-24T00:53:56.765Z,0
2017-08-24T00:55:07.058Z,0
2017-08-24T00:56:17.333Z,0
2017-08-24T00:57:27.608Z,0
2017-08-24T00:58:37.876Z,0
2017-08-24T00:59:48.143Z,0
2017-08-24T01:00:58.418Z,0
2017-08-24T01:02:08.725Z,0
2017-08-24T01:03:18.995Z,0
2017-08-24T01:04:29.262Z,0
2017-08-24T01:05:39.535Z,0
2017-08-24T01:06:49.487Z,0
2017-08-24T01:07:59.755Z,0
2017-08-24T01:09:10.020Z,0
2017-08-24T01:10:19.975Z,0
2017-08-24T01:11:30.245Z,0
2017-08-24T01:12:40.513Z,0
2017-08-24T01:13:50.783Z,0
2017-08-24T01:15:01.062Z,0
2017-08-24T01:16:11.022Z,0
2017-08-24T01:17:20.981Z,0
2017-08-24T01:18:30.946Z,0
2017-08-24T01:19:40.906Z,0
2017-08-24T01:20:50.861Z,0
2017-08-24T01:22:01.128Z,0
2017-08-24T01:23:11.397Z,0
2017-08-24T01:24:21.663Z,0
2017-08-24T01:25:31.302Z,0
2017-08-24T01:26:40.949Z,0
2017-08-24T01:27:50.906Z,0
2017-08-24T01:29:00.864Z,0
2017-08-24T01:30:10.820Z,0
2017-08-24T01:31:21.089Z,0
2017-08-24T01:32:31.358Z,0
2017-08-24T01:33:41.628Z,0
2017-08-24T01:34:51.901Z,0
2017-08-24T01:36:01.859Z,0
2017-08-24T01:37:12.131Z,0
2017-08-24T01:38:22.402Z,0
2017-08-24T01:39:32.679Z,0
2017-08-24T01:40:42.326Z,0
2017-08-24T01:41:52.600Z,0
2017-08-24T01:43:02.561Z,0
2017-08-24T01:44:12.830Z,0
2017-08-24T01:45:23.098Z,0
2017-08-24T01:46:33.376Z,0
2017-08-24T01:47:43.648Z,0
2017-08-24T01:48:53.917Z,0
2017-08-24T01:50:03.872Z,0
2017-08-24T01:51:14.138Z,0
2017-08-24T01:52:24.095Z,0
2017-08-24T01:53:34.364Z,0
2017-08-24T01:54:44.632Z,0
2017-08-24T01:55:54.898Z,0
2017-08-24T01:57:04.559Z,0
2017-08-24T01:58:14.511Z,0
2017-08-24T01:59:24.464Z,0
2017-08-24T02:00:34.730Z,0
2017-08-24T02:01:45.000Z,0
2017-08-24T02:02:54.638Z,0
2017-08-24T02:04:04.905Z,0
2017-08-24T02:05:14.931Z,0
2017-08-24T02:06:25.198Z,0
2017-08-24T02:07:35.479Z,0
2017-08-24T02:08:45.439Z,0
2017-08-24T02:09:54.767Z,0
2017-08-24T02:11:04.725Z,0
2017-08-24T02:12:15.027Z,0
2017-08-24T02:13:24.979Z,0
2017-08-24T02:14:34.305Z,0
2017-08-24T02:15:43.955Z,0
2017-08-24T02:16:54.225Z,0
2017-08-24T02:18:04.496Z,0
2017-08-24T02:19:14.767Z,0
2017-08-24T02:20:25.034Z,0
2017-08-24T02:21:34.986Z,0
2017-08-24T02:22:44.942Z,0
2017-08-24T02:23:54.578Z,0
2017-08-24T02:25:04.535Z,0
2017-08-24T02:26:14.541Z,0
2017-08-24T02:27:24.818Z,0
2017-08-24T02:28:34.773Z,0
2017-08-24T02:29:45.048Z,0
2017-08-24T02:30:55.002Z,0
2017-08-24T02:32:05.278Z,0
2017-08-24T02:33:14.947Z,0
2017-08-24T02:34:24.907Z,0
2017-08-24T02:35:34.571Z,0
2017-08-24T02:36:44.844Z,0
2017-08-24T02:37:54.798Z,0
2017-08-24T02:39:04.754Z,0
2017-08-24T02:40:14.711Z,0
2017-08-24T02:41:24.667Z,0
2017-08-24T02:42:34.940Z,0
2017-08-24T02:43:45.214Z,0
2017-08-24T02:44:55.177Z,0
2017-08-24T02:46:05.448Z,0
2017-08-24T02:47:15.400Z,0
2017-08-24T02:48:25.676Z,0
2017-08-24T02:49:35.637Z,0
2017-08-24T02:50:45.593Z,0
2017-08-24T02:51:55.549Z,0
2017-08-24T02:53:05.836Z,0
2017-08-24T02:54:16.113Z,0
2017-08-24T02:55:26.386Z,0
2017-08-24T02:56:36.658Z,0
2017-08-24T02:57:46.929Z,0
2017-08-24T02:58:56.885Z,0
2017-08-24T03:00:06.837Z,0
2017-08-24T03:01:17.109Z,0
2017-08-24T03:02:27.380Z,0
2017-08-24T03:03:37.017Z,0
2017-08-24T03:04:46.969Z,0
2017-08-24T03:05:56.926Z,0
2017-08-24T03:07:07.198Z,0
2017-08-24T03:08:17.467Z,0
2017-08-24T03:09:27.740Z,0
2017-08-24T03:10:38.009Z,4
2017-08-24T03:11:47.970Z,4
2017-08-24T03:12:58.241Z,4
2017-08-24T03:14:08.205Z,0
2017-08-24T03:15:18.160Z,4
2017-08-24T03:16:28.117Z,4
2017-08-24T03:17:38.388Z,4
2017-08-24T03:18:48.657Z,4
2017-08-24T03:19:58.622Z,8
2017-08-24T03:21:08.584Z,8
2017-08-24T03:22:18.856Z,8
2017-08-24T03:23:28.810Z,8
2017-08-24T03:24:39.079Z,12
2017-08-24T03:25:49.030Z,12
2017-08-24T03:26:58.672Z,12
2017-08-24T03:28:08.943Z,16
2017-08-24T03:29:19.048Z,16
2017-08-24T03:30:29.335Z,20
2017-08-24T03:31:39.333Z,20
2017-08-24T03:32:49.599Z,24
2017-08-24T03:33:59.872Z,28
2017-08-24T03:35:09.835Z,32
2017-08-24T03:36:20.103Z,36
2017-08-24T03:37:30.058Z,40
2017-08-24T03:38:40.344Z,44
2017-08-24T03:39:49.982Z,48
2017-08-24T03:41:00.260Z,52
2017-08-24T03:42:09.587Z,52
2017-08-24T03:43:19.853Z,60
2017-08-24T03:44:30.125Z,60
2017-08-24T03:45:40.401Z,68
2017-08-24T03:46:50.677Z,72
2017-08-24T03:48:00.949Z,76
2017-08-24T03:49:11.214Z,80
2017-08-24T03:50:21.177Z,84
2017-08-24T03:51:31.447Z,92
2017-08-24T03:52:41.713Z,100
2017-08-24T03:53:51.984Z,108
2017-08-24T03:55:02.256Z,108
2017-08-24T03:56:12.215Z,116
2017-08-24T03:57:22.492Z,128
2017-08-24T03:58:32.449Z,136
2017-08-24T03:59:42.402Z,140
2017-08-24T04:00:52.043Z,144
2017-08-24T04:02:01.998Z,160
2017-08-24T04:03:11.951Z,160
2017-08-24T04:04:21.590Z,172
2017-08-24T04:05:31.553Z,180
2017-08-24T04:06:41.507Z,196
2017-08-24T04:07:51.461Z,208
2017-08-24T04:09:01.418Z,224
2017-08-24T04:10:11.378Z,236
2017-08-24T04:11:21.649Z,256
2017-08-24T04:12:31.918Z,276
2017-08-24T04:13:41.889Z,292
2017-08-24T04:14:52.177Z,308
2017-08-24T04:16:02.449Z,332
2017-08-24T04:17:12.725Z,360
2017-08-24T04:18:22.684Z,396
2017-08-24T04:19:32.952Z,420
2017-08-24T04:20:43.223Z,484
2017-08-24T04:21:53.494Z,552
2017-08-24T04:23:03.134Z,612
2017-08-24T04:24:13.406Z,672
2017-08-24T04:25:23.674Z,752
2017-08-24T04:26:33.942Z,860
2017-08-24T04:27:44.213Z,968
2017-08-24T04:28:54.481Z,1052
2017-08-24T04:30:04.437Z,1136
2017-08-24T04:31:14.709Z,1196
2017-08-24T04:32:24.980Z,1236
2017-08-24T04:33:35.251Z,1268
2017-08-24T04:34:45.523Z,1312
2017-08-24T04:35:55.164Z,1324
2017-08-24T04:37:05.431Z,1344
2017-08-24T04:38:15.700Z,1364
2017-08-24T04:39:25.971Z,1384
2017-08-24T04:40:36.250Z,1396
2017-08-24T04:41:46.518Z,1384
2017-08-24T04:42:56.789Z,1348
2017-08-24T04:44:06.743Z,1196
2017-08-24T04:45:16.695Z,1120
2017-08-24T04:46:26.967Z,1080
2017-08-24T04:47:36.922Z,1040
2017-08-24T04:48:46.878Z,1056
2017-08-24T04:49:57.151Z,1108
2017-08-24T04:51:07.673Z,1164
2017-08-24T04:52:17.947Z,1264
2017-08-24T04:53:28.220Z,1248
2017-08-24T04:54:38.490Z,1328
2017-08-24T04:55:48.760Z,1444
2017-08-24T04:56:59.032Z,1460
2017-08-24T04:58:08.986Z,1444
2017-08-24T04:59:19.261Z,1448
2017-08-24T05:00:29.534Z,1416
2017-08-24T05:01:39.808Z,1424
2017-08-24T05:02:49.768Z,1448
2017-08-24T05:04:00.044Z,1492
2017-08-24T05:05:10.000Z,1480
2017-08-24T05:06:19.958Z,1520
2017-08-24T05:07:30.262Z,1532
2017-08-24T05:08:40.546Z,1564
2017-08-24T05:09:50.507Z,1588
2017-08-24T05:11:00.145Z,1548
2017-08-24T05:12:10.424Z,1572
2017-08-24T05:13:20.696Z,1728
2017-08-24T05:14:31.032Z,1844
2017-08-24T05:15:40.986Z,1916
2017-08-24T05:16:50.945Z,1968
2017-08-24T05:18:00.901Z,2040
2017-08-24T05:19:11.168Z,2108
2017-08-24T05:20:21.450Z,2208
2017-08-24T05:21:31.411Z,2324
2017-08-24T05:22:41.052Z,2428
2017-08-24T05:23:51.330Z,2536
2017-08-24T05:25:01.290Z,2620
2017-08-24T05:26:10.624Z,2688
2017-08-24T05:27:20.621Z,2688
2017-08-24T05:28:30.888Z,2736
2017-08-24T05:29:40.846Z,2804
2017-08-24T05:30:50.181Z,2872
2017-08-24T05:32:00.134Z,2912
2017-08-24T05:33:10.420Z,2864
2017-08-24T05:34:20.693Z,2816
2017-08-24T05:35:30.964Z,2732
2017-08-24T05:36:40.925Z,2668
2017-08-24T05:37:50.882Z,2640
2017-08-24T05:39:00.213Z,2616
2017-08-24T05:40:09.857Z,2608
2017-08-24T05:41:19.814Z,2664
2017-08-24T05:42:30.084Z,2740
2017-08-24T05:43:40.350Z,2816
2017-08-24T05:44:49.995Z,2876
2017-08-24T05:45:59.954Z,2932
2017-08-24T05:47:10.230Z,3008
2017-08-24T05:48:20.502Z,3116
2017-08-24T05:49:30.780Z,3240
2017-08-24T05:50:41.054Z,3380
2017-08-24T05:51:51.321Z,3508
2017-08-24T05:53:00.665Z,3560
2017-08-24T05:54:10.676Z,3620
2017-08-24T05:55:20.632Z,3664
2017-08-24T05:56:30.912Z,3708
2017-08-24T05:57:41.190Z,3740
2017-08-24T05:58:51.148Z,3772
2017-08-24T06:00:01.103Z,3764
2017-08-24T06:01:10.744Z,3756
2017-08-24T06:02:21.020Z,3752
2017-08-24T06:03:31.291Z,3768
2017-08-24T06:04:41.568Z,3864
2017-08-24T06:05:51.840Z,3896
2017-08-24T06:07:01.483Z,4024
2017-08-24T06:08:11.755Z,4216
2017-08-24T06:09:21.711Z,4372
2017-08-24T06:10:31.976Z,4524
2017-08-24T06:11:41.965Z,4620
2017-08-24T06:12:52.234Z,4684
2017-08-24T06:14:02.508Z,4712
2017-08-24T06:15:12.784Z,4680
2017-08-24T06:16:22.742Z,4656
2017-08-24T06:17:32.703Z,4656
2017-08-24T06:18:42.974Z,4576
2017-08-24T06:19:52.928Z,4620
2017-08-24T06:21:02.577Z,4568
2017-08-24T06:22:12.845Z,4444
2017-08-24T06:23:23.117Z,4312
2017-08-24T06:24:33.390Z,4232
2017-08-24T06:25:43.664Z,4164
2017-08-24T06:26:53.936Z,4168
2017-08-24T06:28:03.892Z,4176
2017-08-24T06:29:14.162Z,4156
2017-08-24T06:30:24.120Z,4136
2017-08-24T06:31:34.392Z,4436
2017-08-24T06:32:44.662Z,4172
2017-08-24T06:33:54.938Z,4304
2017-08-24T06:35:05.220Z,4340
2017-08-24T06:36:15.518Z,4172
2017-08-24T06:37:25.792Z,4176
2017-08-24T06:38:36.066Z,3988
2017-08-24T06:39:46.336Z,3556
2017-08-24T06:40:56.613Z,3580
2017-08-24T06:42:06.570Z,3476
2017-08-24T06:43:16.897Z,3604
2017-08-24T06:44:27.186Z,3708
2017-08-24T06:45:37.138Z,3864
2017-08-24T06:46:47.101Z,4088
2017-08-24T06:47:57.373Z,4284
2017-08-24T06:49:07.326Z,4416
2017-08-24T06:50:17.297Z,4456
2017-08-24T06:51:27.256Z,4592
2017-08-24T06:52:37.208Z,4576
2017-08-24T06:53:47.167Z,4596
2017-08-24T06:54:56.808Z,4616
2017-08-24T06:56:07.076Z,4736
2017-08-24T06:57:17.037Z,4800
2017-08-24T06:58:27.308Z,4984
2017-08-24T06:59:37.261Z,5024
2017-08-24T07:00:47.531Z,5236
2017-08-24T07:01:57.825Z,5372
2017-08-24T07:03:08.093Z,5516
2017-08-24T07:04:18.419Z,5596
2017-08-24T07:05:28.383Z,5620
2017-08-24T07:06:38.344Z,5592
2017-08-24T07:07:48.621Z,5692
2017-08-24T07:08:58.890Z,5864
2017-08-24T07:10:08.854Z,5796
2017-08-24T07:11:19.128Z,5856
2017-08-24T07:12:29.399Z,6044
2017-08-24T07:13:39.355Z,6204
2017-08-24T07:14:49.634Z,6276
2017-08-24T07:15:59.590Z,6448
2017-08-24T07:17:09.869Z,6548
2017-08-24T07:18:20.139Z,6740
2017-08-24T07:19:30.418Z,6852
2017-08-24T07:20:40.690Z,6988
2017-08-24T07:21:50.655Z,7092
2017-08-24T07:23:00.608Z,7300
2017-08-24T07:24:10.254Z,7232
2017-08-24T07:25:20.537Z,7112
2017-08-24T07:26:30.816Z,7028
2017-08-24T07:27:41.089Z,6796
2017-08-24T07:28:51.363Z,6540
2017-08-24T07:30:01.009Z,6380
2017-08-24T07:31:10.649Z,6492
2017-08-24T07:32:20.967Z,6492
2017-08-24T07:33:31.242Z,6336
2017-08-24T07:34:41.539Z,6288
2017-08-24T07:35:51.808Z,6220
2017-08-24T07:37:01.772Z,6192
2017-08-24T07:38:11.729Z,6164
2017-08-24T07:39:22.004Z,6180
2017-08-24T07:40:31.960Z,6252
2017-08-24T07:41:41.919Z,6372
2017-08-24T07:42:51.874Z,6548
2017-08-24T07:44:02.152Z,6516
2017-08-24T07:45:12.430Z,6640
2017-08-24T07:46:22.706Z,6792
2017-08-24T07:47:32.980Z,6996
2017-08-24T07:48:42.954Z,7004
2017-08-24T07:49:52.913Z,7076
2017-08-24T07:51:03.185Z,7024
2017-08-24T07:52:15.910Z,7020
2017-08-24T07:53:25.906Z,7108
2017-08-24T07:54:36.181Z,7184
2017-08-24T07:55:46.459Z,7168
2017-08-24T07:56:56.747Z,7168
2017-08-24T07:58:07.021Z,7204
2017-08-24T07:59:16.981Z,7280
2017-08-24T08:00:27.258Z,7388
2017-08-24T08:01:37.219Z,7476
2017-08-24T08:02:47.503Z,7612
2017-08-24T08:03:57.457Z,7780
2017-08-24T08:05:07.726Z,8000
2017-08-24T08:06:17.688Z,8212
2017-08-24T08:07:27.715Z,8364
2017-08-24T08:08:38.002Z,8508
2017-08-24T08:09:48.295Z,8644
2017-08-24T08:10:57.936Z,8776
2017-08-24T08:12:07.910Z,8908
2017-08-24T08:13:17.554Z,8924
2017-08-24T08:14:27.827Z,8924
2017-08-24T08:15:38.101Z,8916
2017-08-24T08:16:48.380Z,8924
2017-08-24T08:17:58.662Z,9004
2017-08-24T08:19:08.940Z,9032
2017-08-24T08:20:18.911Z,9212
2017-08-24T08:21:29.182Z,9400
2017-08-24T08:22:39.467Z,9652
2017-08-24T08:23:49.116Z,9876
2017-08-24T08:24:59.080Z,10008
2017-08-24T08:26:09.037Z,9988
2017-08-24T08:27:18.688Z,9896
2017-08-24T08:28:28.961Z,9824
2017-08-24T08:29:39.241Z,9772
2017-08-24T08:30:49.514Z,9856
2017-08-24T08:31:59.785Z,10064
2017-08-24T08:33:09.745Z,10148
2017-08-24T08:34:19.719Z,9964
2017-08-24T08:35:29.364Z,9836
2017-08-24T08:36:39.643Z,9728
2017-08-24T08:37:49.927Z,9772
2017-08-24T08:38:59.890Z,9888
2017-08-24T08:40:09.852Z,9836
2017-08-24T08:41:19.503Z,9808
2017-08-24T08:42:29.778Z,9892
2017-08-24T08:43:40.052Z,10032
2017-08-24T08:44:50.552Z,10060
2017-08-24T08:46:00.540Z,10060
2017-08-24T08:47:10.494Z,10192
2017-08-24T08:48:20.446Z,10300
2017-08-24T08:49:30.075Z,10460
2017-08-24T08:50:39.383Z,10508
2017-08-24T08:51:49.334Z,10408
2017-08-24T08:52:59.282Z,10408
2017-08-24T08:54:09.562Z,10368
2017-08-24T08:55:19.511Z,10372
2017-08-24T08:56:29.786Z,10376
2017-08-24T08:57:39.742Z,10252
2017-08-24T08:58:50.013Z,10068
2017-08-24T09:00:00.290Z,9904
2017-08-24T09:01:10.567Z,9568
2017-08-24T09:02:20.195Z,9240
2017-08-24T09:03:30.464Z,9144
2017-08-24T09:04:40.425Z,9164
2017-08-24T09:05:50.702Z,9192
2017-08-24T09:07:00.705Z,9192
2017-08-24T09:08:10.052Z,9440
2017-08-24T09:09:20.003Z,9864
2017-08-24T09:10:30.272Z,10156
2017-08-24T09:11:40.560Z,10396
2017-08-24T09:12:50.512Z,10548
2017-08-24T09:14:00.499Z,10860
2017-08-24T09:15:10.131Z,11240
2017-08-24T09:16:19.758Z,11636
2017-08-24T09:17:29.708Z,11944
2017-08-24T09:18:39.979Z,12336
2017-08-24T09:19:49.934Z,12888
2017-08-24T09:20:59.890Z,12932
2017-08-24T09:22:09.838Z,12952
2017-08-24T09:23:20.126Z,13140
2017-08-24T09:24:30.084Z,13272
2017-08-24T09:25:40.047Z,13316
2017-08-24T09:26:50.319Z,13480
2017-08-24T09:28:00.598Z,13636
2017-08-24T09:29:10.224Z,13704
2017-08-24T09:30:20.504Z,13584
2017-08-24T09:31:30.778Z,13540
2017-08-24T09:32:40.731Z,13768
2017-08-24T09:33:50.364Z,13956
2017-08-24T09:35:00.319Z,14156
2017-08-24T09:36:09.951Z,14208
2017-08-24T09:37:19.905Z,14360
2017-08-24T09:38:30.182Z,14380
2017-08-24T09:39:40.450Z,14316
2017-08-24T09:40:50.403Z,14080
2017-08-24T09:42:00.356Z,14004
2017-08-24T09:43:10.000Z,13952
2017-08-24T09:44:20.274Z,14288
2017-08-24T09:45:30.554Z,14732
2017-08-24T09:46:40.508Z,14964
2017-08-24T09:47:50.785Z,15180
2017-08-24T09:49:01.060Z,15136
2017-08-24T09:50:11.019Z,14988
2017-08-24T09:51:21.292Z,14844
2017-08-24T09:52:31.581Z,14740
2017-08-24T09:53:41.857Z,14672
2017-08-24T09:54:51.817Z,14612
2017-08-24T09:56:02.101Z,14344
2017-08-24T09:57:12.056Z,14012
2017-08-24T09:58:22.006Z,13672
2017-08-24T09:59:32.277Z,13396
2017-08-24T10:00:42.230Z,13008
2017-08-24T10:01:52.505Z,12516
2017-08-24T10:03:02.788Z,12032
2017-08-24T10:04:13.061Z,11692
2017-08-24T10:05:23.010Z,11584
2017-08-24T10:06:32.961Z,11384
2017-08-24T10:07:42.919Z,10876
2017-08-24T10:08:52.875Z,10652
2017-08-24T10:10:02.830Z,10836
2017-08-24T10:11:12.786Z,10984
2017-08-24T10:12:23.082Z,11180
2017-08-24T10:13:33.363Z,11740
2017-08-24T10:14:43.313Z,11760
2017-08-24T10:15:53.264Z,11680
2017-08-24T10:17:03.539Z,11652
2017-08-24T10:18:13.491Z,11696
2017-08-24T10:19:23.450Z,11776
2017-08-24T10:20:33.734Z,12012
2017-08-24T10:21:43.688Z,12284
2017-08-24T10:22:53.644Z,12632
2017-08-24T10:24:03.597Z,12788
2017-08-24T10:25:13.566Z,13008
2017-08-24T10:26:23.846Z,13160
2017-08-24T10:27:34.121Z,13256
2017-08-24T10:28:44.587Z,13388
2017-08-24T10:29:55.279Z,13440
2017-08-24T10:31:05.612Z,13576
2017-08-24T10:32:16.028Z,13760
2017-08-24T10:33:26.307Z,13880
2017-08-24T10:34:36.578Z,14044
2017-08-24T10:35:46.857Z,14192
2017-08-24T10:36:56.489Z,14320
2017-08-24T10:38:06.766Z,14416
2017-08-24T10:39:17.040Z,14568
2017-08-24T10:40:27.336Z,14656
2017-08-24T10:41:37.305Z,14820
2017-08-24T10:42:47.256Z,14980
2017-08-24T10:43:57.535Z,15232
2017-08-24T10:45:07.492Z,15400
2017-08-24T10:46:17.444Z,15528
2017-08-24T10:47:27.730Z,15568
2017-08-24T10:48:37.685Z,15672
2017-08-24T10:49:47.958Z,15988
2017-08-24T10:50:57.912Z,16672
2017-08-24T10:52:07.859Z,17120
2017-08-24T10:53:17.812Z,17632
2017-08-24T10:54:28.086Z,18112
2017-08-24T10:55:38.356Z,18656
2017-08-24T10:56:47.986Z,18944
2017-08-24T10:57:57.940Z,18848
2017-08-24T10:59:07.895Z,18752
2017-08-24T11:00:17.529Z,18848
2017-08-24T11:01:27.216Z,19104
2017-08-24T11:02:37.504Z,19264
2017-08-24T11:03:47.457Z,19520
2017-08-24T11:04:57.735Z,19648
2017-08-24T11:06:08.014Z,19904
2017-08-24T11:07:17.974Z,20128
2017-08-24T11:08:27.931Z,20320
2017-08-24T11:09:38.206Z,20960
2017-08-24T11:10:48.498Z,21728
2017-08-24T11:11:58.453Z,21792
2017-08-24T11:13:08.405Z,22272
2017-08-24T11:14:18.369Z,22112
2017-08-24T11:15:28.052Z,22112
2017-08-24T11:16:38.340Z,22560
2017-08-24T11:17:48.625Z,22688
2017-08-24T11:18:58.624Z,22656
2017-08-24T11:20:08.255Z,22080
2017-08-24T11:21:18.539Z,21920
2017-08-24T11:22:28.504Z,24032
2017-08-24T11:23:37.817Z,28224
2017-08-24T11:24:48.102Z,27360
2017-08-24T11:25:58.384Z,26688
2017-08-24T11:27:08.342Z,24160
2017-08-24T11:28:18.298Z,22464
2017-08-24T11:29:28.261Z,22336
2017-08-24T11:30:38.221Z,22240
2017-08-24T11:31:48.497Z,24288
2017-08-24T11:32:58.785Z,27680
2017-08-24T11:34:09.117Z,24736
2017-08-24T11:35:19.074Z,27616
2017-08-24T11:36:29.348Z,25504
2017-08-24T11:37:39.636Z,22720
2017-08-24T11:38:49.269Z,20096
2017-08-24T11:39:58.903Z,18528
2017-08-24T11:41:08.879Z,17632
2017-08-24T11:42:18.833Z,16480
2017-08-24T11:43:29.119Z,14860
2017-08-24T11:44:39.442Z,13644
2017-08-24T11:45:49.439Z,12408
2017-08-24T11:46:59.725Z,12096
2017-08-24T11:48:09.679Z,12108
2017-08-24T11:49:19.957Z,12448
2017-08-24T11:50:29.912Z,13004
2017-08-24T11:51:39.867Z,13512
2017-08-24T11:52:49.830Z,14068
2017-08-24T11:54:00.104Z,14256
2017-08-24T11:55:10.094Z,14632
2017-08-24T11:56:20.412Z,14984
2017-08-24T11:57:30.690Z,15092
2017-08-24T11:58:40.965Z,15284
2017-08-24T11:59:51.246Z,15436
2017-08-24T12:01:00.880Z,15816
2017-08-24T12:02:10.837Z,16832
2017-08-24T12:03:20.791Z,17824
2017-08-24T12:04:31.069Z,18784
2017-08-24T12:05:41.347Z,19488
2017-08-24T12:06:51.625Z,20192
2017-08-24T12:08:01.581Z,20800
2017-08-24T12:09:11.538Z,20832
2017-08-24T12:10:21.818Z,19712
2017-08-24T12:11:31.776Z,19232
2017-08-24T12:12:42.060Z,19520
2017-08-24T12:13:51.693Z,19424
2017-08-24T12:15:01.648Z,18944
2017-08-24T12:16:11.612Z,19136
2017-08-24T12:17:21.886Z,19200
2017-08-24T12:18:32.165Z,19648
2017-08-24T12:19:42.439Z,20352
2017-08-24T12:20:52.393Z,21344
2017-08-24T12:22:02.350Z,25344
2017-08-24T12:23:12.629Z,26368
2017-08-24T12:24:22.908Z,26720
2017-08-24T12:25:32.863Z,24992
2017-08-24T12:26:43.146Z,27104
2017-08-24T12:27:53.435Z,30144
2017-08-24T12:29:03.714Z,26336
2017-08-24T12:30:13.676Z,28064
2017-08-24T12:31:23.956Z,29056
2017-08-24T12:32:34.245Z,30048
2017-08-24T12:33:44.532Z,29440
2017-08-24T12:34:54.811Z,28736
2017-08-24T12:36:04.779Z,28704
2017-08-24T12:37:15.056Z,28192
2017-08-24T12:38:25.339Z,30880
2017-08-24T12:39:35.291Z,32032
2017-08-24T12:40:45.567Z,32032
2017-08-24T12:41:55.532Z,27968
2017-08-24T12:43:05.828Z,26848
2017-08-24T12:44:15.786Z,26688
2017-08-24T12:45:26.072Z,26240
2017-08-24T12:46:36.349Z,25120
2017-08-24T12:47:46.313Z,23808
2017-08-24T12:48:56.594Z,23328
2017-08-24T12:50:06.875Z,22912
2017-08-24T12:51:17.162Z,22816
2017-08-24T12:52:27.478Z,22496
2017-08-24T12:53:37.756Z,22272
2017-08-24T12:54:48.047Z,21696
2017-08-24T12:55:58.339Z,21344
2017-08-24T12:57:08.298Z,21248
2017-08-24T12:58:18.586Z,21440
2017-08-24T12:59:28.871Z,21088
2017-08-24T13:00:38.828Z,20448
2017-08-24T13:01:48.790Z,19296
2017-08-24T13:02:58.434Z,19392
2017-08-24T13:04:08.709Z,17920
2017-08-24T13:05:18.673Z,17312
2017-08-24T13:06:28.951Z,16416
2017-08-24T13:07:38.587Z,15664
2017-08-24T13:08:48.866Z,15232
2017-08-24T13:09:58.502Z,15324
2017-08-24T13:11:08.458Z,15668
2017-08-24T13:12:18.096Z,16320
2017-08-24T13:13:28.377Z,17568
2017-08-24T13:14:38.656Z,19136
2017-08-24T13:15:48.613Z,20448
2017-08-24T13:16:58.925Z,21312
2017-08-24T13:18:08.578Z,23264
2017-08-24T13:19:18.216Z,30656
2017-08-24T13:20:28.497Z,44800
2017-08-24T13:21:38.138Z,21760
2017-08-24T13:22:48.415Z,20320
2017-08-24T13:23:58.053Z,19712
2017-08-24T13:25:08.011Z,18368
2017-08-24T13:26:17.969Z,17216
2017-08-24T13:27:27.926Z,16512
2017-08-24T13:28:38.200Z,15680
2017-08-24T13:29:48.166Z,15296
2017-08-24T13:30:57.813Z,15356
2017-08-24T13:32:07.770Z,14908
2017-08-24T13:33:17.409Z,14768
2017-08-24T13:34:27.685Z,14580
2017-08-24T13:35:37.962Z,14428
2017-08-24T13:36:47.923Z,13896
2017-08-24T13:37:57.877Z,13072
2017-08-24T13:39:07.515Z,12236
2017-08-24T13:40:17.478Z,12012
2017-08-24T13:41:27.437Z,12148
2017-08-24T13:42:37.712Z,12084
2017-08-24T13:43:47.994Z,11420
2017-08-24T13:44:57.951Z,10320
2017-08-24T13:46:08.226Z,9376
2017-08-24T13:47:18.186Z,8904
2017-08-24T13:48:28.465Z,8656
2017-08-24T13:49:38.426Z,8608
2017-08-24T13:50:48.386Z,8660
2017-08-24T13:51:58.042Z,8568
2017-08-24T13:53:08.318Z,8564
2017-08-24T13:54:18.600Z,8472
2017-08-24T13:55:28.557Z,8344
2017-08-24T13:56:38.834Z,8296
2017-08-24T13:57:48.789Z,8196
2017-08-24T13:58:58.422Z,8236
2017-08-24T14:00:08.701Z,8372
2017-08-24T14:01:18.982Z,8596
2017-08-24T14:02:28.940Z,8756
2017-08-24T14:03:38.894Z,8996
2017-08-24T14:04:48.851Z,9192
2017-08-24T14:05:58.165Z,9168
2017-08-24T14:07:08.448Z,9016
2017-08-24T14:08:18.723Z,8940
2017-08-24T14:09:29.008Z,8932
2017-08-24T14:10:38.319Z,8944
2017-08-24T14:11:48.593Z,8792
2017-08-24T14:12:58.223Z,8340
2017-08-24T14:14:08.190Z,7768
2017-08-24T14:15:18.472Z,7244
2017-08-24T14:16:28.755Z,6696
2017-08-24T14:17:39.030Z,6212
2017-08-24T14:18:49.309Z,5848
2017-08-24T14:19:59.272Z,5568
2017-08-24T14:21:09.557Z,5412
2017-08-24T14:22:19.517Z,5324
2017-08-24T14:23:29.795Z,5256
2017-08-24T14:24:40.070Z,5256
2017-08-24T14:25:50.059Z,5356
2017-08-24T14:27:00.338Z,5504
2017-08-24T14:28:09.969Z,5668
2017-08-24T14:29:19.904Z,5888
2017-08-24T14:30:30.179Z,6088
2017-08-24T14:31:40.146Z,6296
2017-08-24T14:32:50.099Z,6584
2017-08-24T14:34:00.054Z,6952
2017-08-24T14:35:10.334Z,7352
2017-08-24T14:36:20.615Z,7756
2017-08-24T14:37:30.891Z,8228
2017-08-24T14:38:41.168Z,8552
2017-08-24T14:39:51.450Z,8608
2017-08-24T14:41:01.410Z,8528
2017-08-24T14:42:11.369Z,8316
2017-08-24T14:43:21.643Z,8116
2017-08-24T14:44:31.923Z,7808
2017-08-24T14:45:42.202Z,7660
2017-08-24T14:46:52.156Z,7584
2017-08-24T14:48:02.436Z,7552
2017-08-24T14:49:12.389Z,7552
2017-08-24T14:50:22.662Z,7640
2017-08-24T14:51:32.947Z,7684
2017-08-24T14:52:42.906Z,7740
2017-08-24T14:53:52.863Z,7928
2017-08-24T14:55:03.135Z,8272
2017-08-24T14:56:13.100Z,8748
2017-08-24T14:57:23.394Z,9336
2017-08-24T14:58:33.346Z,9676
2017-08-24T14:59:43.618Z,9816
2017-08-24T15:00:53.902Z,10132
2017-08-24T15:02:03.857Z,10716
2017-08-24T15:03:14.131Z,11616
2017-08-24T15:04:24.507Z,12452
2017-08-24T15:05:34.477Z,12680
2017-08-24T15:06:44.758Z,12840
2017-08-24T15:07:55.036Z,12796
2017-08-24T15:09:05.310Z,12524
2017-08-24T15:10:15.264Z,12028
2017-08-24T15:11:25.217Z,11492
2017-08-24T15:12:35.169Z,11096
2017-08-24T15:13:45.130Z,10772
2017-08-24T15:14:55.086Z,10424
2017-08-24T15:16:05.377Z,10116
2017-08-24T15:17:14.688Z,9848
2017-08-24T15:18:24.654Z,9524
2017-08-24T15:19:34.930Z,9228
2017-08-24T15:20:44.882Z,9036
2017-08-24T15:21:55.157Z,8960
2017-08-24T15:23:05.117Z,8964
2017-08-24T15:24:15.125Z,8908
2017-08-24T15:25:25.085Z,8820
2017-08-24T15:26:35.040Z,8788
2017-08-24T15:27:44.670Z,8796
2017-08-24T15:28:54.303Z,8976
2017-08-24T15:30:04.261Z,9308
2017-08-24T15:31:14.544Z,9732
2017-08-24T15:32:24.820Z,10032
2017-08-24T15:33:34.775Z,10208
2017-08-24T15:34:44.405Z,10268
2017-08-24T15:38:31.962Z,10256
2017-08-24T15:39:42.249Z,10204
2017-08-24T15:40:51.897Z,10032
2017-08-24T15:42:02.188Z,9800
2017-08-24T15:43:12.463Z,9516
2017-08-24T15:44:22.417Z,9188
2017-08-24T15:45:32.695Z,8872
2017-08-24T15:46:42.648Z,8648
2017-08-24T15:47:52.923Z,8492